Time;durP1;ratioP1;P1;durP2;ratioP2;P2;SDS_P1;SDS_P2;PMS_P1;PMS_P2;Temp;Humidity;BMP_temperature;BMP_pressure;BME280_temperature;BME280_humidity;BME280_pressure;Samples;Min_cycle;Max_cycle;Signal;HPM_P1;HPM_P2
2022/08/16 00:01:52;;;;;;;4.95;2.53;;;21.70;99.90;;;;;;5035678;28;20108;-69
2022/08/16 00:04:17;;;;;;;3.40;2.47;;;21.70;99.90;;;;;;5054905;28;20064;-69
2022/08/16 00:06:43;;;;;;;3.92;2.45;;;21.80;99.90;;;;;;5042119;28;20040;-69
2022/08/16 00:09:09;;;;;;;4.13;2.30;;;21.60;99.90;;;;;;5056547;28;20116;-69
2022/08/16 00:11:35;;;;;;;;;;;21.60;99.90;;;;;;5053386;28;20108;-69
2022/08/16 00:14:02;;;;;;;4.20;2.50;;;21.50;99.90;;;;;;5053099;28;19991;-69
2022/08/16 00:16:30;;;;;;;4.30;2.40;;;21.50;99.90;;;;;;5035431;28;20106;-69
2022/08/16 00:18:57;;;;;;;4.70;2.60;;;21.50;99.90;;;;;;5037140;28;20478;-69
2022/08/16 00:21:23;;;;;;;3.33;2.55;;;21.40;99.90;;;;;;5056983;28;20028;-70
2022/08/16 00:23:49;;;;;;;4.97;2.70;;;21.50;99.90;;;;;;5057969;28;20024;-69
2022/08/16 00:26:14;;;;;;;3.92;2.65;;;21.40;99.90;;;;;;5040098;28;20078;-70
2022/08/16 00:28:40;;;;;;;5.13;2.85;;;21.50;99.90;;;;;;5057706;28;20056;-69
2022/08/16 00:31:06;;;;;;;5.93;3.17;;;21.40;99.90;;;;;;5056410;28;20067;-69
2022/08/16 00:33:31;;;;;;;5.10;3.45;;;21.30;99.90;;;;;;5054890;28;20025;-69
2022/08/16 00:35:57;;;;;;;4.25;2.70;;;21.30;99.90;;;;;;5053719;28;20061;-69
2022/08/16 00:38:22;;;;;;;4.85;2.95;;;21.30;99.90;;;;;;5053767;28;20045;-69
2022/08/16 00:40:51;;;;;;;4.28;3.17;;;21.40;99.90;;;;;;5053761;28;20029;-69
2022/08/16 00:43:23;;;;;;;4.47;2.60;;;21.40;99.90;;;;;;5053708;28;20096;-69
2022/08/16 00:46:04;;;;;;;5.93;3.47;;;21.30;99.90;;;;;;5053042;28;20048;-69
2022/08/16 00:48:31;;;;;;;6.15;3.65;;;21.30;99.90;;;;;;5053297;28;20021;-70
2022/08/16 00:50:57;;;;;;;6.38;3.65;;;21.40;99.90;;;;;;5035036;28;20021;-69
2022/08/16 00:53:23;;;;;;;;;;;21.30;99.90;;;;;;5035239;28;20025;-69
2022/08/16 00:55:52;;;;;;;5.82;3.28;;;21.30;99.90;;;;;;5053590;28;19904;-69
2022/08/16 00:58:19;;;;;;;4.55;3.28;;;21.30;99.90;;;;;;5052890;28;20501;-69
2022/08/16 01:00:46;;;;;;;5.75;3.42;;;21.30;99.90;;;;;;5035034;28;20048;-69
2022/08/16 01:03:14;;;;;;;5.00;3.28;;;21.30;99.90;;;;;;5035284;28;20115;-69
2022/08/16 01:05:41;;;;;;;6.72;3.28;;;21.10;99.90;;;;;;5035559;28;20021;-69
2022/08/16 01:08:08;;;;;;;5.32;3.25;;;20.90;99.90;;;;;;5052932;28;20462;-70
2022/08/16 01:10:35;;;;;;;5.38;3.25;;;21.00;99.90;;;;;;5035271;28;20123;-70
2022/08/16 01:13:08;;;;;;;;;;;20.90;99.90;;;;;;5035526;28;20025;-69
2022/08/16 01:15:37;;;;;;;5.22;3.55;;;20.90;99.90;;;;;;5034944;28;19930;-69
2022/08/16 01:18:06;;;;;;;4.22;3.10;;;21.00;99.90;;;;;;5034871;28;20032;-69
2022/08/16 01:20:39;;;;;;;5.82;3.15;;;20.90;99.90;;;;;;5034534;28;20029;-69
2022/08/16 01:23:12;;;;;;;4.10;3.13;;;20.90;99.90;;;;;;5034368;28;20112;-70
2022/08/16 01:25:41;;;;;;;4.53;3.28;;;21.10;99.90;;;;;;5052814;28;20027;-70
2022/08/16 01:28:11;;;;;;;5.05;3.50;;;20.90;99.90;;;;;;5034631;28;20021;-70
2022/08/16 01:30:41;;;;;;;6.85;3.95;;;21.00;99.90;;;;;;5054891;28;20037;-69
2022/08/16 01:33:08;;;;;;;6.40;4.03;;;21.00;99.90;;;;;;5055914;28;20036;-69
2022/08/16 01:35:56;;;;;;;5.75;4.05;;;21.00;99.90;;;;;;5056310;28;20543;-69
2022/08/16 01:38:37;;;;;;;6.25;3.60;;;20.90;99.90;;;;;;5056325;28;20495;-69
2022/08/16 01:41:13;;;;;;;6.80;3.22;;;21.00;99.90;;;;;;5038067;28;20056;-70
2022/08/16 01:43:41;;;;;;;5.60;3.70;;;21.00;99.90;;;;;;5038549;28;20025;-69
2022/08/16 01:46:26;;;;;;;4.18;3.42;;;21.00;99.90;;;;;;5037903;28;20028;-69
2022/08/16 01:49:04;;;;;;;5.10;3.30;;;21.00;99.90;;;;;;5056454;28;20021;-70
2022/08/16 01:51:30;;;;;;;6.93;3.95;;;21.00;99.90;;;;;;5057258;28;20048;-70
2022/08/16 01:53:56;;;;;;;5.00;3.92;;;20.80;99.90;;;;;;5058847;28;20047;-70
2022/08/16 01:56:23;;;;;;;4.22;3.83;;;20.90;99.90;;;;;;5057204;28;20028;-69
2022/08/16 01:58:50;;;;;;;6.25;3.92;;;20.90;99.90;;;;;;5055551;28;20384;-69
2022/08/16 02:01:15;;;;;;;8.40;4.28;;;20.80;99.90;;;;;;5037941;28;20021;-69
2022/08/16 02:03:41;;;;;;;7.22;4.45;;;20.70;99.90;;;;;;5037649;28;20070;-69
2022/08/16 02:06:06;;;;;;;6.50;4.32;;;20.70;99.90;;;;;;5055250;28;20462;-70
2022/08/16 02:08:33;;;;;;;5.25;3.45;;;20.80;99.90;;;;;;5037496;28;20082;-69
2022/08/16 02:11:01;;;;;;;8.38;4.03;;;21.00;99.90;;;;;;5037093;28;20025;-69
2022/08/16 02:13:26;;;;;;;6.00;4.13;;;20.90;99.90;;;;;;5037869;28;20078;-69
2022/08/16 02:15:52;;;;;;;7.03;4.05;;;20.90;99.90;;;;;;5054903;28;20021;-69
2022/08/16 02:18:17;;;;;;;5.20;4.20;;;20.90;99.90;;;;;;5054843;28;20104;-69
2022/08/16 02:20:48;;;;;;;5.85;4.03;;;20.90;99.90;;;;;;5055169;28;20531;-69
2022/08/16 02:23:14;;;;;;;7.18;3.80;;;20.90;99.90;;;;;;5036865;28;20469;-69
2022/08/16 02:25:39;;;;;;;4.47;3.60;;;20.90;99.90;;;;;;5055086;28;20035;-69
2022/08/16 02:28:05;;;;;;;6.50;3.83;;;20.90;99.90;;;;;;5054736;28;20395;-69
2022/08/16 02:30:32;;;;;;;5.60;3.50;;;21.00;99.90;;;;;;5054814;28;20422;-70
2022/08/16 02:32:57;;;;;;;4.65;3.83;;;20.90;99.90;;;;;;5036594;28;20033;-70
2022/08/16 02:35:24;;;;;;;5.72;3.90;;;21.00;99.90;;;;;;5036753;28;20090;-70
2022/08/16 02:37:51;;;;;;;5.00;3.78;;;21.10;99.90;;;;;;5036513;28;20045;-69
2022/08/16 02:40:18;;;;;;;7.25;4.40;;;21.00;99.90;;;;;;5042168;28;20474;-69
2022/08/16 02:42:45;;;;;;;7.78;4.25;;;21.10;99.90;;;;;;5063566;28;20036;-69
2022/08/16 02:45:11;;;;;;;7.22;4.68;;;21.00;99.90;;;;;;5054562;28;20393;-70
2022/08/16 02:47:36;;;;;;;5.85;4.20;;;21.00;99.90;;;;;;5036574;28;20021;-69
2022/08/16 02:50:04;;;;;;;6.60;4.78;;;20.90;99.90;;;;;;5054521;28;20043;-69
2022/08/16 02:52:29;;;;;;;7.80;4.85;;;20.80;99.90;;;;;;5037325;28;20060;-69
2022/08/16 02:54:56;;;;;;;6.85;4.50;;;20.80;99.90;;;;;;5054729;28;20040;-69
2022/08/16 02:57:22;;;;;;;;;;;20.80;99.90;;;;;;5036773;28;20032;-70
2022/08/16 02:59:49;;;;;;;5.97;4.37;;;21.00;99.90;;;;;;5054327;28;19908;-69
2022/08/16 03:02:15;;;;;;;5.78;4.38;;;20.90;99.90;;;;;;5054233;28;20359;-69
2022/08/16 03:04:40;;;;;;;8.35;4.85;;;20.90;99.90;;;;;;5036399;28;20441;-69
2022/08/16 03:07:06;;;;;;;6.00;4.35;;;21.00;99.90;;;;;;5054392;28;20057;-69
2022/08/16 03:09:33;;;;;;;5.65;3.95;;;21.00;99.90;;;;;;5036154;28;20029;-69
2022/08/16 03:11:59;;;;;;;7.25;4.68;;;21.00;99.90;;;;;;5036410;28;20032;-70
2022/08/16 03:14:25;;;;;;;6.75;4.35;;;20.90;99.90;;;;;;5043102;28;20053;-69
2022/08/16 03:16:52;;;;;;;6.55;3.80;;;20.90;99.90;;;;;;5066609;28;20107;-69
2022/08/16 03:19:18;;;;;;;5.38;4.07;;;21.00;99.90;;;;;;5063197;28;20027;-69
2022/08/16 03:21:45;;;;;;;8.95;4.97;;;21.20;99.90;;;;;;5057188;28;20096;-69
2022/08/16 03:24:11;;;;;;;5.82;4.35;;;21.20;99.90;;;;;;5057987;28;20051;-69
2022/08/16 03:26:37;;;;;;;8.85;4.72;;;21.20;99.90;;;;;;5057163;28;20025;-69
2022/08/16 03:29:03;;;;;;;6.07;4.00;;;21.30;99.90;;;;;;5055219;28;20458;-69
2022/08/16 03:31:28;;;;;;;;;;;21.30;99.90;;;;;;5054411;28;20405;-69
2022/08/16 03:33:54;;;;;;;5.45;4.35;;;21.20;99.90;;;;;;5053540;28;19904;-69
2022/08/16 03:36:19;;;;;;;7.82;4.57;;;21.20;99.90;;;;;;5035320;28;20051;-69
2022/08/16 03:38:45;;;;;;;5.90;3.75;;;21.10;99.90;;;;;;5035453;28;20032;-69
2022/08/16 03:41:12;;;;;;;7.10;3.88;;;21.00;99.90;;;;;;5053463;28;20029;-69
2022/08/16 03:43:38;;;;;;;4.47;3.10;;;21.10;99.90;;;;;;5035270;28;20396;-70
2022/08/16 03:46:03;;;;;;;;;;;21.10;99.90;;;;;;5053614;28;20021;-70
2022/08/16 03:48:33;;;;;;;5.10;3.50;;;21.10;99.90;;;;;;5053229;28;19954;-70
2022/08/16 03:51:00;;;;;;;5.20;3.45;;;21.10;99.90;;;;;;5053352;28;20017;-70
2022/08/16 03:53:26;;;;;;;4.63;3.58;;;21.10;99.90;;;;;;5035284;28;20055;-70
2022/08/16 03:55:52;;;;;;;5.32;3.53;;;21.00;99.90;;;;;;5053226;28;20032;-69
2022/08/16 03:58:18;;;;;;;5.93;3.42;;;21.10;99.90;;;;;;5054083;28;20469;-70
2022/08/16 04:00:44;;;;;;;6.03;3.63;;;21.10;99.90;;;;;;5036145;28;20128;-69
2022/08/16 04:03:09;;;;;;;6.45;4.05;;;21.10;99.90;;;;;;5054117;28;20017;-69
2022/08/16 04:05:38;;;;;;;6.18;4.63;;;21.20;99.90;;;;;;5036296;28;20024;-69
2022/08/16 04:08:05;;;;;;;6.38;3.53;;;21.20;99.90;;;;;;5053660;28;20025;-69
2022/08/16 04:10:30;;;;;;;5.47;4.00;;;21.20;99.90;;;;;;5035607;28;20178;-69
2022/08/16 04:12:57;;;;;;;3.97;3.25;;;21.40;99.90;;;;;;5036921;28;20052;-69
2022/08/16 04:15:24;;;;;;;4.97;3.58;;;21.40;99.90;;;;;;5057454;28;20025;-69
2022/08/16 04:17:51;;;;;;;4.90;4.18;;;21.40;99.90;;;;;;5039312;28;20025;-69
2022/08/16 04:20:16;;;;;;;6.03;4.45;;;21.30;99.90;;;;;;5056454;28;20541;-69
2022/08/16 04:22:43;;;;;;;5.53;4.05;;;21.30;99.90;;;;;;5056408;28;20060;-72
2022/08/16 04:25:10;;;;;;;5.70;3.92;;;21.40;99.90;;;;;;5056172;28;20113;-69
2022/08/16 04:27:36;;;;;;;6.38;4.25;;;21.50;99.90;;;;;;5055654;28;20024;-70
2022/08/16 04:30:06;;;;;;;6.22;3.53;;;21.30;99.90;;;;;;5037036;28;20029;-70
2022/08/16 04:32:32;;;;;;;6.63;4.00;;;21.20;99.90;;;;;;5035719;28;20033;-70
2022/08/16 04:34:58;;;;;;;6.45;3.97;;;21.30;99.90;;;;;;5035500;28;20029;-69
2022/08/16 04:37:23;;;;;;;15.07;4.68;;;21.30;99.90;;;;;;5053065;28;20075;-69
2022/08/16 04:39:49;;;;;;;4.95;3.70;;;21.20;99.90;;;;;;5053138;28;20078;-69
2022/08/16 04:42:16;;;;;;;5.07;4.15;;;21.20;99.90;;;;;;5053386;28;20029;-70
2022/08/16 04:44:42;;;;;;;5.32;3.80;;;21.20;99.90;;;;;;5052597;28;20100;-69
2022/08/16 04:47:08;;;;;;;5.40;4.03;;;21.20;99.90;;;;;;5034834;28;20421;-69
2022/08/16 04:49:34;;;;;;;6.05;3.45;;;21.30;99.90;;;;;;5052777;28;20029;-70
2022/08/16 04:52:00;;;;;;;5.72;3.40;;;21.50;99.90;;;;;;5036875;28;20556;-70
2022/08/16 04:54:26;;;;;;;4.32;3.45;;;21.50;99.90;;;;;;5062062;28;20021;-70
2022/08/16 04:56:51;;;;;;;6.40;4.20;;;21.60;99.90;;;;;;5035142;28;20087;-70
2022/08/16 04:59:17;;;;;;;4.95;3.00;;;21.60;99.90;;;;;;5052572;28;20037;-69
2022/08/16 05:01:43;;;;;;;5.80;3.63;;;21.60;99.90;;;;;;5034593;28;20113;-70
2022/08/16 05:04:09;;;;;;;6.35;3.63;;;21.70;99.90;;;;;;5034953;28;20393;-70
2022/08/16 05:06:35;;;;;;;6.60;3.45;;;21.80;99.90;;;;;;5056470;28;20017;-70
2022/08/16 05:09:03;;;;;;;7.07;4.18;;;21.80;99.90;;;;;;5056987;28;20029;-70
2022/08/16 05:11:29;;;;;;;6.75;3.33;;;21.80;99.90;;;;;;5038548;28;20120;-69
2022/08/16 05:13:55;;;;;;;5.35;3.90;;;21.80;99.90;;;;;;5038526;28;20474;-69
2022/08/16 05:16:28;;;;;;;8.93;3.35;;;21.90;99.90;;;;;;5057217;28;20059;-70
2022/08/16 05:18:56;;;;;;;7.60;3.92;;;21.90;99.90;;;;;;5038720;28;20471;-70
2022/08/16 05:21:22;;;;;;;7.57;3.92;;;22.00;99.90;;;;;;5056274;28;20053;-70
2022/08/16 05:23:49;;;;;;;7.45;3.70;;;22.00;99.90;;;;;;5056543;28;20025;-70
2022/08/16 05:26:15;;;;;;;7.25;3.40;;;21.90;99.90;;;;;;5056210;28;20074;-71
2022/08/16 05:28:42;;;;;;;4.93;3.55;;;21.70;99.90;;;;;;5056547;28;20051;-70
2022/08/16 05:31:07;;;;;;;7.25;4.40;;;22.00;99.90;;;;;;5056269;28;20100;-70
2022/08/16 05:33:33;;;;;;;6.70;4.00;;;22.00;99.90;;;;;;5057433;28;20150;-70
2022/08/16 05:35:58;;;;;;;7.80;3.90;;;22.20;99.90;;;;;;5037961;28;20461;-70
2022/08/16 05:38:26;;;;;;;6.78;3.85;;;22.20;99.90;;;;;;5037857;28;20051;-69
2022/08/16 05:40:56;;;;;;;5.40;3.47;;;22.40;99.90;;;;;;5037922;28;20025;-70
2022/08/16 05:43:22;;;;;;;4.82;4.13;;;22.40;99.90;;;;;;5037752;28;20036;-69
2022/08/16 05:45:48;;;;;;;16.98;14.95;;;22.40;99.90;;;;;;5038303;28;20362;-69
2022/08/16 05:48:13;;;;;;;;;;;22.50;99.90;;;;;;5056374;28;20383;-69
2022/08/16 05:50:39;;;;;;;19.20;15.90;;;22.40;99.90;;;;;;5056508;28;19939;-69
2022/08/16 05:53:05;;;;;;;9.05;4.95;;;22.40;99.90;;;;;;5055350;28;20367;-70
2022/08/16 05:55:31;;;;;;;10.60;5.15;;;22.50;99.90;;;;;;5055814;28;20025;-70
2022/08/16 05:57:56;;;;;;;9.32;4.53;;;22.50;99.90;;;;;;5037696;28;20021;-70
2022/08/16 06:00:22;;;;;;;10.80;8.45;;;22.50;99.90;;;;;;5037653;28;20031;-69
2022/08/16 06:02:48;;;;;;;6.28;5.43;;;22.30;99.90;;;;;;5037152;28;20144;-70
2022/08/16 06:05:13;;;;;;;6.95;5.97;;;22.30;99.90;;;;;;5055037;28;20083;-70
2022/08/16 06:07:39;;;;;;;8.20;4.93;;;22.30;99.90;;;;;;5037109;28;20025;-69
2022/08/16 06:10:06;;;;;;;7.85;5.03;;;22.20;99.90;;;;;;5055279;28;20107;-69
2022/08/16 06:12:31;;;;;;;7.07;4.43;;;22.20;99.90;;;;;;5054799;28;20047;-69
2022/08/16 06:15:01;;;;;;;8.95;4.55;;;22.30;99.90;;;;;;5053741;28;20446;-69
2022/08/16 06:17:28;;;;;;;6.78;4.63;;;22.10;99.90;;;;;;5037098;28;20033;-69
2022/08/16 06:19:53;;;;;;;6.78;4.80;;;22.00;99.90;;;;;;5054667;28;20029;-70
2022/08/16 06:22:19;;;;;;;9.23;5.13;;;22.10;99.90;;;;;;5054715;28;20101;-69
2022/08/16 06:24:45;;;;;;;7.70;5.32;;;22.00;99.90;;;;;;5054575;28;20496;-70
2022/08/16 06:27:10;;;;;;;9.95;6.10;;;22.00;99.90;;;;;;5036445;28;20517;-69
2022/08/16 06:29:36;;;;;;;;;;;21.90;99.90;;;;;;5054888;28;20067;-69
2022/08/16 06:32:02;;;;;;;6.85;4.22;;;22.00;99.90;;;;;;5054515;28;19904;-70
2022/08/16 06:34:28;;;;;;;7.53;4.50;;;22.20;99.90;;;;;;5054493;28;20032;-69
2022/08/16 06:36:53;;;;;;;;;;;22.30;99.90;;;;;;5054979;28;20041;-69
2022/08/16 06:39:19;;;;;;;5.72;4.95;;;22.30;99.90;;;;;;5054842;28;19923;-69
2022/08/16 06:41:45;;;;;;;8.80;4.57;;;22.40;99.90;;;;;;5054704;28;20047;-70
2022/08/16 06:44:10;;;;;;;5.88;4.90;;;22.40;99.90;;;;;;5036322;28;20074;-70
2022/08/16 06:46:36;;;;;;;9.20;5.03;;;22.50;99.90;;;;;;5054016;28;20025;-68
2022/08/16 06:49:09;;;;;;;;;;;22.50;99.90;;;;;;5055420;28;20032;-69
2022/08/16 06:51:36;;;;;;;8.13;4.78;;;22.40;99.90;;;;;;5054844;28;19941;-69
2022/08/16 06:54:04;;;;;;;6.40;4.93;;;22.60;99.90;;;;;;5054181;28;20027;-69
2022/08/16 06:56:30;;;;;;;6.50;4.78;;;22.60;99.90;;;;;;5035813;28;20024;-70
2022/08/16 06:58:56;;;;;;;10.00;4.50;;;22.60;99.90;;;;;;5052621;28;20037;-70
2022/08/16 07:01:22;;;;;;;5.80;4.70;;;22.70;99.90;;;;;;5053951;28;20424;-69
2022/08/16 07:03:48;;;;;;;9.25;4.30;;;22.60;99.90;;;;;;5036653;28;20060;-69
2022/08/16 07:06:17;;;;;;;9.60;4.55;;;22.70;99.90;;;;;;5055607;28;20025;-70
2022/08/16 07:08:43;;;;;;;6.78;4.32;;;22.60;99.90;;;;;;5036782;28;20390;-69
2022/08/16 07:11:09;;;;;;;5.75;4.35;;;22.70;99.90;;;;;;5035843;28;20071;-68
2022/08/16 07:13:35;;;;;;;6.22;4.47;;;22.80;99.90;;;;;;5053528;28;20472;-69
2022/08/16 07:16:02;;;;;;;5.65;3.88;;;22.90;99.90;;;;;;5053783;28;20036;-70
2022/08/16 07:18:28;;;;;;;8.80;4.13;;;23.00;99.90;;;;;;5053740;28;20025;-69
2022/08/16 07:20:56;;;;;;;6.05;3.78;;;23.00;99.90;;;;;;5054040;28;20025;-69
2022/08/16 07:23:22;;;;;;;5.43;4.72;;;23.10;99.90;;;;;;5035528;28;20071;-69
2022/08/16 07:25:47;;;;;;;7.57;4.30;;;23.10;99.90;;;;;;5053266;28;20029;-70
2022/08/16 07:28:16;;;;;;;10.07;4.07;;;23.20;99.90;;;;;;5052866;28;20036;-69
2022/08/16 07:30:42;;;;;;;6.25;4.00;;;23.30;99.90;;;;;;5053544;28;20032;-69
2022/08/16 07:33:09;;;;;;;9.95;4.30;;;23.50;99.90;;;;;;5053304;28;20029;-69
2022/08/16 07:35:35;;;;;;;6.13;3.90;;;23.50;99.90;;;;;;5053281;28;20025;-69
2022/08/16 07:38:00;;;;;;;6.13;4.15;;;23.50;99.90;;;;;;5054210;28;20107;-73
2022/08/16 07:40:26;;;;;;;5.63;4.22;;;23.70;99.90;;;;;;5035517;28;20064;-74
2022/08/16 07:42:52;;;;;;;;;;;23.80;99.90;;;;;;5035794;28;20466;-73
2022/08/16 07:45:18;;;;;;;9.98;5.95;;;23.80;99.90;;;;;;5053412;28;19915;-72
2022/08/16 07:47:43;;;;;;;;;;;23.90;99.90;;;;;;5035512;28;20048;-72
2022/08/16 07:50:11;;;;;;;5.00;4.07;;;23.90;99.90;;;;;;5035212;28;20006;-72
2022/08/16 07:52:36;;;;;;;6.05;4.28;;;24.00;99.90;;;;;;5035202;28;20396;-73
2022/08/16 07:55:02;;;;;;;10.38;4.22;;;24.10;99.90;;;;;;5035127;28;20120;-73
2022/08/16 07:57:28;;;;;;;;;;;24.30;99.90;;;;;;5035193;28;20031;-71
2022/08/16 07:59:53;;;;;;;4.40;3.72;;;24.30;99.90;;;;;;5051575;28;19954;-71
2022/08/16 08:02:19;;;;;;;;;;;24.50;99.90;;;;;;5053480;28;20021;-72
2022/08/16 08:04:44;;;;;;;7.50;3.80;;;24.50;99.90;;;;;;5053169;28;19913;-72
2022/08/16 08:07:11;;;;;;;;;;;24.70;99.90;;;;;;5053241;28;20028;-72
2022/08/16 08:09:37;;;;;;;8.90;3.83;;;24.80;99.90;;;;;;5034969;28;20042;-71
2022/08/16 08:12:03;;;;;;;7.40;4.38;;;25.00;99.90;;;;;;5052829;28;20032;-73
2022/08/16 08:14:28;;;;;;;;;;;25.10;99.90;;;;;;5053062;28;20033;-72
2022/08/16 08:16:54;;;;;;;6.45;3.53;;;25.20;99.80;;;;;;5034542;28;19905;-71
2022/08/16 08:19:19;;;;;;;;;;;25.20;99.70;;;;;;5052871;28;20029;-72
2022/08/16 08:21:46;;;;;;;5.78;3.63;;;25.40;99.40;;;;;;5034656;28;20050;-72
2022/08/16 08:24:13;;;;;;;8.52;3.72;;;25.70;98.90;;;;;;5052713;28;20017;-72
2022/08/16 08:26:40;;;;;;;5.90;3.55;;;26.80;97.30;;;;;;5052547;28;20117;-72
2022/08/16 08:29:06;;;;;;;4.53;3.35;;;27.50;95.70;;;;;;5034726;28;20075;-72
2022/08/16 08:31:35;;;;;;;;;;;28.30;94.10;;;;;;5052805;28;20046;-72
2022/08/16 08:34:02;;;;;;;4.45;3.50;;;28.50;93.10;;;;;;5052657;28;19905;-72
2022/08/16 08:36:32;;;;;;;4.72;3.63;;;28.90;92.40;;;;;;5034656;28;20474;-73
2022/08/16 08:38:58;;;;;;;5.97;3.60;;;28.70;92.10;;;;;;5036373;28;20029;-73
2022/08/16 08:41:27;;;;;;;5.55;3.30;;;28.40;92.10;;;;;;5056753;28;20465;-72
2022/08/16 08:43:53;;;;;;;6.35;3.28;;;28.50;92.10;;;;;;5056673;28;20025;-72
2022/08/16 08:46:20;;;;;;;5.13;3.15;;;30.60;90.40;;;;;;5058616;28;20044;-71
2022/08/16 08:48:45;;;;;;;5.43;3.38;;;33.30;83.30;;;;;;5039198;28;20017;-73
2022/08/16 08:51:11;;;;;;;8.52;3.63;;;34.20;78.60;;;;;;5056712;28;20483;-72
2022/08/16 08:53:37;;;;;;;5.38;3.38;;;35.50;75.20;;;;;;5056346;28;20033;-72
2022/08/16 08:56:05;;;;;;;8.13;3.63;;;37.50;70.50;;;;;;5056555;28;20487;-72
2022/08/16 08:58:32;;;;;;;4.65;3.25;;;38.90;66.60;;;;;;5038231;28;20059;-72
2022/08/16 09:00:58;;;;;;;5.22;3.50;;;39.00;64.40;;;;;;5056137;28;20543;-72
2022/08/16 09:03:24;;;;;;;3.38;2.92;;;39.50;62.90;;;;;;5038146;28;20025;-72
2022/08/16 09:05:50;;;;;;;13.27;3.85;;;37.70;63.60;;;;;;5038040;28;20072;-72
2022/08/16 09:08:16;;;;;;;5.57;3.33;;;37.60;64.10;;;;;;5037898;28;20017;-72
2022/08/16 09:10:41;;;;;;;4.43;3.22;;;37.10;64.20;;;;;;5056093;28;20032;-73
2022/08/16 09:13:07;;;;;;;5.60;3.50;;;36.40;65.30;;;;;;5056216;28;20024;-73
2022/08/16 09:15:33;;;;;;;7.25;3.47;;;36.40;64.60;;;;;;5037687;28;20082;-72
2022/08/16 09:18:02;;;;;;;4.22;2.90;;;36.90;64.70;;;;;;5058170;28;20085;-72
2022/08/16 09:20:28;;;;;;;4.05;3.35;;;37.40;63.20;;;;;;5056533;28;20055;-72
2022/08/16 09:22:55;;;;;;;5.03;3.50;;;35.90;64.30;;;;;;5056143;28;20489;-72
2022/08/16 09:25:21;;;;;;;5.25;3.17;;;35.30;65.60;;;;;;5056049;28;20034;-72
2022/08/16 09:27:47;;;;;;;6.25;3.70;;;34.60;66.90;;;;;;5055900;28;20028;-72
2022/08/16 09:30:13;;;;;;;4.70;3.70;;;33.90;67.90;;;;;;5038152;28;20351;-72
2022/08/16 09:32:38;;;;;;;5.45;3.65;;;33.10;69.00;;;;;;5038003;28;20033;-72
2022/08/16 09:35:05;;;;;;;8.07;4.07;;;31.80;71.40;;;;;;5055804;28;20025;-72
2022/08/16 09:37:33;;;;;;;5.28;3.70;;;30.80;73.60;;;;;;5037189;28;20041;-72
2022/08/16 09:39:59;;;;;;;6.68;3.22;;;30.40;75.60;;;;;;5055405;28;20025;-72
2022/08/16 09:42:27;;;;;;;4.93;2.97;;;32.90;72.10;;;;;;5055835;28;20354;-72
2022/08/16 09:44:52;;;;;;;4.85;3.40;;;35.90;67.50;;;;;;5056839;28;20096;-72
2022/08/16 09:47:18;;;;;;;11.90;3.60;;;37.70;63.40;;;;;;5037894;28;20028;-72
2022/08/16 09:49:44;;;;;;;5.18;3.55;;;39.10;62.00;;;;;;5054871;28;20466;-73
2022/08/16 09:52:10;;;;;;;6.20;2.85;;;38.40;60.80;;;;;;5037148;28;20118;-72
2022/08/16 09:54:37;;;;;;;8.95;3.15;;;36.80;62.20;;;;;;5055228;28;20021;-72
2022/08/16 09:57:03;;;;;;;8.25;3.55;;;36.40;62.80;;;;;;5039077;28;20418;-72
2022/08/16 09:59:30;;;;;;;6.50;3.28;;;37.20;62.60;;;;;;5065100;28;20094;-72
2022/08/16 10:01:55;;;;;;;5.05;2.97;;;38.80;60.60;;;;;;5048193;28;20139;-71
2022/08/16 10:04:24;;;;;;;5.50;3.00;;;38.60;59.10;;;;;;5064136;28;20075;-72
2022/08/16 10:06:49;;;;;;;4.57;2.97;;;38.20;59.40;;;;;;5062323;28;20150;-72
2022/08/16 10:09:15;;;;;;;4.22;2.85;;;39.40;58.70;;;;;;5061546;28;20056;-72
2022/08/16 10:14:29;;;;;;;4.50;2.70;;;41.00;57.00;;;;;;5061335;28;20066;-72
2022/08/16 10:16:59;;;;;;;4.57;2.70;;;42.50;55.60;;;;;;5059128;28;20055;-72
2022/08/16 10:19:25;;;;;;;4.22;2.40;;;42.80;54.30;;;;;;5059857;28;20108;-73
2022/08/16 10:21:52;;;;;;;4.78;3.10;;;42.30;53.60;;;;;;5038913;28;20440;-73
2022/08/16 10:24:18;;;;;;;3.28;2.65;;;41.00;54.60;;;;;;5037071;28;20187;-73
2022/08/16 10:26:44;;;;;;;4.82;2.90;;;38.80;55.80;;;;;;5036535;28;20028;-73
2022/08/16 10:29:10;;;;;;;4.53;3.00;;;37.60;57.40;;;;;;5054556;28;20100;-72
2022/08/16 10:31:36;;;;;;;3.92;3.00;;;38.20;57.20;;;;;;5055782;28;20032;-73
2022/08/16 10:34:02;;;;;;;7.55;3.40;;;36.60;58.10;;;;;;5056116;28;20020;-72
2022/08/16 10:36:28;;;;;;;4.55;2.85;;;36.90;58.70;;;;;;5037200;28;20127;-72
2022/08/16 10:38:53;;;;;;;4.88;3.00;;;36.60;58.60;;;;;;5036586;28;20123;-72
2022/08/16 10:41:19;;;;;;;3.35;2.92;;;35.20;60.00;;;;;;5055942;28;20021;-72
2022/08/16 10:43:46;;;;;;;3.85;2.65;;;34.20;61.30;;;;;;5055496;28;20023;-72
2022/08/16 10:46:12;;;;;;;4.18;2.33;;;35.50;60.00;;;;;;5036661;28;20021;-72
2022/08/16 10:48:42;;;;;;;3.05;2.35;;;37.70;57.40;;;;;;5054334;28;20074;-73
2022/08/16 10:51:08;;;;;;;3.38;2.40;;;39.20;56.30;;;;;;5054630;28;20063;-72
2022/08/16 10:53:35;;;;;;;3.85;2.80;;;39.40;55.70;;;;;;5054206;28;20096;-73
2022/08/16 10:56:04;;;;;;;2.50;2.30;;;38.40;55.30;;;;;;5036454;28;20028;-72
2022/08/16 10:58:30;;;;;;;4.43;2.50;;;36.70;56.60;;;;;;5054906;28;20049;-72
2022/08/16 11:00:55;;;;;;;3.42;3.08;;;35.80;57.80;;;;;;5036521;28;20067;-72
2022/08/16 11:03:21;;;;;;;4.60;2.70;;;34.80;58.90;;;;;;5053640;28;20096;-72
2022/08/16 11:05:46;;;;;;;2.78;2.45;;;33.90;60.10;;;;;;5054969;28;20017;-72
2022/08/16 11:08:12;;;;;;;3.47;2.63;;;32.90;62.20;;;;;;5036644;28;20035;-72
2022/08/16 11:10:43;;;;;;;5.60;2.53;;;32.60;63.10;;;;;;5054589;28;20074;-72
2022/08/16 11:13:11;;;;;;;2.90;2.65;;;32.20;63.80;;;;;;5036686;28;20059;-73
2022/08/16 11:15:37;;;;;;;3.10;2.80;;;31.90;64.60;;;;;;5037136;28;20379;-72
2022/08/16 11:18:04;;;;;;;6.82;3.05;;;31.90;64.90;;;;;;5036979;28;20029;-72
2022/08/16 11:20:30;;;;;;;5.38;2.78;;;31.40;65.10;;;;;;5054766;28;20025;-72
2022/08/16 11:22:57;;;;;;;4.82;2.88;;;31.10;66.00;;;;;;5036694;28;20032;-72
2022/08/16 11:25:27;;;;;;;6.43;3.67;;;30.80;66.20;;;;;;5054541;28;20040;-72
2022/08/16 11:27:54;;;;;;;4.07;2.80;;;30.60;66.70;;;;;;5036686;28;20017;-71
2022/08/16 11:30:21;;;;;;;4.07;2.97;;;30.70;66.50;;;;;;5057949;28;20029;-72
2022/08/16 11:32:46;;;;;;;3.35;2.60;;;30.60;66.10;;;;;;5036730;28;20469;-72
2022/08/16 11:35:15;;;;;;;2.78;2.42;;;30.50;66.60;;;;;;5053672;28;20032;-72
2022/08/16 11:37:47;;;;;;;3.08;2.78;;;30.50;66.50;;;;;;5037973;28;20029;-73
2022/08/16 11:40:14;;;;;;;5.53;3.15;;;30.40;66.30;;;;;;5036918;28;20459;-72
2022/08/16 11:42:39;;;;;;;3.97;2.45;;;30.30;66.70;;;;;;5054459;28;20033;-72
2022/08/16 11:45:05;;;;;;;3.22;2.45;;;30.40;66.30;;;;;;5036402;28;20044;-73
2022/08/16 11:47:31;;;;;;;4.40;2.58;;;30.60;66.00;;;;;;5036321;28;20028;-72
2022/08/16 11:49:57;;;;;;;2.63;2.40;;;30.50;66.10;;;;;;5036484;28;20024;-71
2022/08/16 11:52:22;;;;;;;4.78;2.58;;;30.60;66.20;;;;;;5054350;28;20102;-73
2022/08/16 11:54:49;;;;;;;6.53;2.58;;;30.10;65.80;;;;;;5054340;28;20028;-73
2022/08/16 11:57:14;;;;;;;4.95;2.78;;;29.90;66.60;;;;;;5036060;28;20025;-71
2022/08/16 11:59:40;;;;;;;3.70;3.20;;;29.70;67.40;;;;;;5053885;28;20083;-72
2022/08/16 12:02:07;;;;;;;4.10;2.85;;;29.60;67.90;;;;;;5036228;28;20021;-72
2022/08/16 12:04:34;;;;;;;3.15;2.25;;;29.50;67.60;;;;;;5053593;28;20116;-71
2022/08/16 12:07:04;;;;;;;3.75;2.17;;;29.50;67.50;;;;;;5053754;28;20056;-72
2022/08/16 12:09:30;;;;;;;3.42;2.90;;;29.60;68.00;;;;;;5035571;28;20111;-72
2022/08/16 12:11:57;;;;;;;4.72;3.22;;;29.80;68.30;;;;;;5054111;28;20060;-72
2022/08/16 12:14:23;;;;;;;2.92;2.63;;;29.90;68.10;;;;;;5052871;28;20025;-72
2022/08/16 12:16:52;;;;;;;3.65;2.90;;;30.00;67.90;;;;;;5052747;28;20078;-71
2022/08/16 12:19:18;;;;;;;4.57;2.80;;;30.00;67.30;;;;;;5034705;28;20067;-73
2022/08/16 12:21:44;;;;;;;4.95;3.13;;;29.90;68.10;;;;;;5052813;28;20045;-73
2022/08/16 12:24:10;;;;;;;3.97;3.05;;;29.90;68.10;;;;;;5053124;28;20469;-73
2022/08/16 12:26:35;;;;;;;5.68;2.65;;;30.00;67.80;;;;;;5053232;28;20028;-72
2022/08/16 12:29:02;;;;;;;6.68;4.28;;;29.80;68.90;;;;;;5035725;28;20107;-73
2022/08/16 12:31:27;;;;;;;3.72;2.80;;;29.70;69.30;;;;;;5053653;28;20052;-73
2022/08/16 12:33:53;;;;;;;5.10;3.08;;;29.60;69.30;;;;;;5035009;28;20044;-73
2022/08/16 12:36:19;;;;;;;5.18;2.80;;;29.70;69.50;;;;;;5035008;28;20040;-72
2022/08/16 12:38:45;;;;;;;6.18;2.88;;;29.70;69.30;;;;;;5054966;28;20036;-72
2022/08/16 12:41:12;;;;;;;5.00;2.90;;;29.90;68.40;;;;;;5052538;28;20025;-72
2022/08/16 12:43:40;;;;;;;9.60;2.92;;;29.90;68.40;;;;;;5052608;28;20108;-72
2022/08/16 12:46:07;;;;;;;4.35;2.55;;;29.80;68.20;;;;;;5035135;28;20056;-72
2022/08/16 12:51:20;;;;;;;5.18;2.78;;;30.00;67.30;;;;;;5053181;28;20055;-72
2022/08/16 12:53:47;;;;;;;4.15;2.88;;;30.00;67.30;;;;;;5052880;28;20128;-72